createdAt,value
2019-03-19T00:00:28.467Z,1.45
2019-03-19T00:02:56.611Z,2.10
2019-03-19T00:05:24.618Z,1.65
2019-03-19T00:07:52.711Z,2.47
2019-03-19T00:10:20.738Z,1.50
2019-03-19T00:12:48.758Z,1.70
2019-03-19T00:15:16.780Z,2.02
2019-03-19T00:17:44.817Z,1.12
2019-03-19T00:20:13.692Z,1.40
2019-03-19T00:22:42.004Z,1.75
2019-03-19T00:25:10.078Z,1.50
2019-03-19T00:27:38.430Z,1.40
2019-03-19T00:30:08.129Z,1.27
2019-03-19T00:32:36.206Z,1.42
2019-03-19T00:35:04.970Z,1.20
2019-03-19T00:37:33.014Z,1.12
2019-03-19T00:40:01.035Z,1.82
2019-03-19T00:42:29.062Z,1.27
2019-03-19T00:44:57.150Z,1.05
2019-03-19T00:47:25.167Z,1.30
2019-03-19T00:49:53.187Z,1.07
2019-03-19T00:52:21.320Z,1.75
2019-03-19T00:54:49.890Z,1.22
2019-03-19T00:57:17.904Z,1.45
2019-03-19T00:59:45.949Z,1.50
2019-03-19T01:02:13.991Z,1.25
2019-03-19T01:04:42.016Z,1.10
2019-03-19T01:07:10.035Z,1.37
2019-03-19T01:09:38.240Z,1.40
2019-03-19T01:12:06.347Z,1.47
2019-03-19T01:14:34.365Z,1.32
2019-03-19T01:17:02.652Z,1.67
2019-03-19T01:19:30.699Z,1.00
2019-03-19T01:21:58.716Z,1.57
2019-03-19T01:24:26.742Z,1.47
2019-03-19T01:26:54.960Z,1.37
2019-03-19T01:29:22.992Z,1.20
2019-03-19T01:31:51.103Z,1.10
2019-03-19T01:34:19.135Z,1.47
2019-03-19T01:36:47.140Z,1.20
2019-03-19T01:39:15.167Z,1.10
2019-03-19T01:41:43.431Z,1.10
2019-03-19T01:44:11.476Z,0.90
2019-03-19T01:46:39.518Z,1.10
2019-03-19T01:49:07.607Z,1.70
2019-03-19T01:51:35.636Z,1.00
2019-03-19T01:54:03.759Z,1.17
2019-03-19T01:56:31.849Z,1.27
2019-03-19T01:58:59.854Z,1.82
2019-03-19T02:01:27.888Z,1.17
2019-03-19T02:03:55.914Z,0.98
2019-03-19T02:06:23.955Z,1.27
2019-03-19T02:08:51.984Z,1.27
2019-03-19T02:11:20.041Z,1.20
2019-03-19T02:13:48.057Z,1.10
2019-03-19T02:16:16.096Z,0.90
2019-03-19T02:18:44.110Z,1.20
2019-03-19T02:21:12.143Z,1.10
2019-03-19T02:23:40.218Z,1.00
2019-03-19T02:26:15.913Z,1.30
2019-03-19T02:28:37.960Z,1.12
2019-03-19T02:31:06.005Z,1.12
2019-03-19T02:33:34.162Z,0.90
2019-03-19T02:36:02.205Z,1.92
2019-03-19T02:38:30.282Z,1.52
2019-03-19T02:40:58.325Z,2.00
2019-03-19T02:43:26.340Z,1.22
2019-03-19T02:45:54.426Z,1.20
2019-03-19T02:48:22.424Z,1.05
2019-03-19T02:50:50.583Z,1.00
2019-03-19T02:53:18.767Z,1.02
2019-03-19T02:55:46.830Z,1.10
2019-03-19T02:58:14.861Z,1.10
2019-03-19T03:00:42.895Z,1.37
2019-03-19T03:03:10.979Z,1.25
2019-03-19T03:05:39.044Z,1.22
2019-03-19T03:08:07.072Z,0.98
2019-03-19T03:10:35.090Z,1.35
2019-03-19T03:13:03.199Z,1.47
2019-03-19T03:15:31.280Z,1.47
2019-03-19T03:17:59.320Z,2.17
2019-03-19T03:20:27.339Z,1.17
2019-03-19T03:22:55.390Z,1.02
2019-03-19T03:25:23.390Z,1.47
2019-03-19T03:27:51.451Z,1.17
2019-03-19T03:30:20.412Z,0.93
2019-03-19T03:32:49.377Z,1.57
2019-03-19T03:35:17.392Z,1.10
2019-03-19T03:37:45.400Z,1.22
2019-03-19T03:40:16.934Z,1.90
2019-03-19T03:42:45.072Z,1.20
2019-03-19T03:45:13.659Z,1.00
2019-03-19T03:47:41.656Z,0.80
2019-03-19T03:50:10.668Z,2.65
2019-03-19T03:52:43.032Z,0.90
2019-03-19T03:55:14.484Z,1.20
2019-03-19T03:57:42.600Z,1.05
2019-03-19T04:00:12.248Z,0.93
2019-03-19T04:02:40.257Z,1.57
2019-03-19T04:05:08.291Z,1.20
2019-03-19T04:07:36.310Z,1.05
2019-03-19T04:10:06.204Z,0.80
2019-03-19T04:12:34.208Z,1.05
2019-03-19T04:15:02.241Z,1.00
2019-03-19T04:17:30.335Z,0.95
2019-03-19T04:19:58.445Z,1.42
2019-03-19T04:22:26.447Z,1.22
2019-03-19T04:24:54.486Z,1.10
2019-03-19T04:27:22.503Z,1.25
2019-03-19T04:29:50.524Z,1.10
2019-03-19T04:32:18.537Z,1.32
2019-03-19T04:34:46.748Z,1.10
2019-03-19T04:37:14.790Z,1.05
2019-03-19T04:39:42.787Z,1.17
2019-03-19T04:42:10.891Z,1.52
2019-03-19T04:44:38.977Z,1.05
2019-03-19T04:47:07.016Z,1.30
2019-03-19T04:49:35.050Z,1.00
2019-03-19T04:52:03.090Z,1.00
2019-03-19T04:54:31.102Z,1.10
2019-03-19T04:56:59.267Z,1.02
2019-03-19T04:59:27.274Z,0.90
2019-03-19T05:01:55.379Z,1.20
2019-03-19T05:04:23.383Z,1.57
2019-03-19T05:06:51.686Z,1.12
2019-03-19T05:09:19.699Z,0.93
2019-03-19T05:11:47.781Z,1.45
2019-03-19T05:14:15.815Z,0.95
2019-03-19T05:16:43.858Z,1.98
2019-03-19T05:19:11.882Z,1.27
2019-03-19T05:21:39.912Z,1.15
2019-03-19T05:24:08.121Z,1.17
2019-03-19T05:26:36.119Z,1.20
2019-03-19T05:29:04.243Z,1.20
2019-03-19T05:31:32.366Z,1.17
2019-03-19T05:34:00.392Z,1.00
2019-03-19T05:36:28.419Z,1.22
2019-03-19T05:38:56.567Z,1.00
2019-03-19T05:41:24.619Z,1.30
2019-03-19T05:43:52.864Z,1.32
2019-03-19T05:46:20.871Z,1.25
2019-03-19T05:48:48.908Z,1.30
2019-03-19T05:51:16.961Z,1.20
2019-03-19T05:53:44.979Z,1.52
2019-03-19T05:56:13.000Z,1.15
2019-03-19T05:58:41.034Z,1.10
2019-03-19T06:01:09.047Z,1.10
2019-03-19T06:03:37.108Z,1.30
2019-03-19T06:06:05.224Z,1.27
2019-03-19T06:08:33.295Z,1.10
2019-03-19T06:11:01.378Z,1.17
2019-03-19T06:13:29.425Z,1.40
2019-03-19T06:15:57.452Z,1.30
2019-03-19T06:18:34.584Z,1.32
2019-03-19T06:20:55.253Z,1.30
2019-03-19T06:23:23.264Z,1.15
2019-03-19T06:25:51.369Z,1.20
2019-03-19T06:28:19.480Z,1.30
2019-03-19T06:30:47.588Z,1.20
2019-03-19T06:33:15.596Z,1.10
2019-03-19T06:35:43.624Z,1.05
2019-03-19T06:38:11.736Z,1.20
2019-03-19T06:40:39.886Z,2.02
2019-03-19T06:43:07.903Z,1.52
2019-03-19T06:45:36.015Z,1.40
2019-03-19T06:48:04.154Z,1.12
2019-03-19T06:50:32.179Z,1.40
2019-03-19T06:53:00.178Z,1.20
2019-03-19T06:55:28.283Z,2.17
2019-03-19T06:57:56.352Z,1.20
2019-03-19T07:00:24.677Z,1.37
2019-03-19T07:02:52.775Z,1.30
2019-03-19T07:05:22.384Z,1.40
2019-03-19T07:07:50.391Z,2.33
2019-03-19T07:10:18.719Z,1.50
2019-03-19T07:12:46.724Z,1.30
2019-03-19T07:15:17.952Z,1.30
2019-03-19T07:17:45.982Z,1.47
2019-03-19T07:20:20.678Z,1.30
2019-03-19T07:22:48.693Z,1.32
2019-03-19T07:25:16.695Z,1.50
2019-03-19T07:27:44.730Z,2.65
2019-03-19T07:30:14.387Z,1.55
2019-03-19T07:32:42.451Z,2.72
2019-03-19T07:35:11.929Z,2.25
2019-03-19T07:37:40.025Z,2.10
2019-03-19T07:40:09.012Z,1.95
2019-03-19T07:42:37.067Z,1.37
2019-03-19T07:45:06.769Z,1.40
2019-03-19T07:47:34.959Z,2.35
2019-03-19T07:50:03.336Z,1.42
2019-03-19T07:52:31.407Z,4.97
2019-03-19T07:54:59.415Z,8.80
2019-03-19T07:57:29.507Z,7.85
2019-03-19T07:59:57.368Z,5.87
2019-03-19T08:02:25.416Z,12.37
2019-03-19T08:04:53.483Z,4.22
2019-03-19T08:07:21.682Z,6.55
2019-03-19T08:09:49.737Z,4.55
2019-03-19T08:12:17.906Z,4.83
2019-03-19T08:14:46.008Z,3.98
2019-03-19T08:17:14.157Z,3.25
2019-03-19T08:19:42.202Z,4.20
2019-03-19T08:22:10.228Z,3.02
2019-03-19T08:24:38.271Z,5.33
2019-03-19T08:27:06.288Z,4.22
2019-03-19T08:29:34.778Z,27.32
2019-03-19T08:32:03.007Z,17.87
2019-03-19T08:34:31.044Z,12.93
2019-03-19T08:36:59.112Z,21.27
2019-03-19T08:39:27.176Z,26.50
2019-03-19T08:41:55.226Z,15.70
2019-03-19T08:44:27.761Z,16.87
2019-03-19T08:46:53.158Z,18.40
2019-03-19T08:49:22.387Z,17.87
2019-03-19T08:51:50.620Z,13.70
2019-03-19T08:54:18.794Z,13.55
2019-03-19T08:56:46.811Z,12.65
2019-03-19T08:59:14.843Z,11.03
2019-03-19T09:01:42.885Z,14.28
2019-03-19T09:04:13.896Z,14.73
2019-03-19T09:06:42.004Z,15.63
2019-03-19T09:09:10.077Z,12.93
2019-03-19T09:11:38.088Z,9.20
2019-03-19T09:14:06.110Z,8.38
2019-03-19T09:16:34.296Z,11.90
2019-03-19T09:19:02.318Z,13.85
2019-03-19T09:21:30.439Z,14.35
2019-03-19T09:23:58.455Z,9.13
2019-03-19T09:26:26.576Z,14.13
2019-03-19T09:28:54.590Z,14.00
2019-03-19T09:31:22.627Z,12.30
2019-03-19T09:33:50.635Z,9.90
2019-03-19T09:36:18.763Z,10.82
2019-03-19T09:38:46.799Z,11.88
2019-03-19T09:41:16.324Z,10.68
2019-03-19T09:43:44.407Z,11.97
2019-03-19T09:46:12.435Z,9.83
2019-03-19T09:48:40.488Z,10.53
2019-03-19T09:51:08.531Z,9.68
2019-03-19T09:53:36.674Z,7.55
2019-03-19T09:56:04.709Z,9.33
2019-03-19T09:58:32.808Z,8.20
2019-03-19T10:01:00.851Z,9.55
2019-03-19T10:03:28.865Z,9.10
2019-03-19T10:05:56.912Z,9.73
2019-03-19T10:08:24.994Z,9.53
2019-03-19T10:10:53.002Z,9.45
2019-03-19T10:13:21.421Z,8.85
2019-03-19T10:15:49.493Z,7.08
2019-03-19T10:18:17.516Z,8.73
2019-03-19T10:20:45.543Z,8.53
2019-03-19T10:23:13.627Z,8.48
2019-03-19T10:25:41.641Z,6.30
2019-03-19T10:28:09.663Z,7.53
2019-03-19T10:30:37.673Z,7.75
2019-03-19T10:33:05.787Z,10.18
2019-03-19T10:35:33.855Z,7.85
2019-03-19T10:38:01.886Z,7.45
2019-03-19T10:40:29.902Z,7.53
2019-03-19T10:42:57.932Z,6.33
2019-03-19T10:45:26.039Z,6.95
2019-03-19T10:47:54.056Z,6.20
2019-03-19T10:50:25.436Z,7.03
2019-03-19T10:52:53.466Z,5.58
2019-03-19T10:55:21.478Z,5.03
2019-03-19T10:57:49.510Z,5.78
2019-03-19T11:00:19.281Z,7.85
2019-03-19T11:02:47.323Z,5.28
2019-03-19T11:05:15.520Z,7.62
2019-03-19T11:07:43.528Z,5.78
2019-03-19T11:10:12.435Z,7.45
2019-03-19T11:12:40.459Z,5.87
2019-03-19T11:15:10.113Z,6.65
2019-03-19T11:17:38.292Z,4.85
2019-03-19T11:20:07.674Z,8.00
2019-03-19T11:22:35.691Z,7.17
2019-03-19T11:25:05.195Z,6.83
2019-03-19T11:27:33.276Z,6.12
2019-03-19T11:30:01.305Z,7.10
2019-03-19T11:32:29.401Z,5.42
2019-03-19T11:34:57.456Z,4.55
2019-03-19T11:37:25.565Z,4.90
2019-03-19T11:39:53.642Z,5.03
2019-03-19T11:42:21.735Z,5.70
2019-03-19T11:44:49.800Z,6.15
2019-03-19T11:47:17.953Z,5.92
2019-03-19T11:49:46.123Z,6.92
2019-03-19T11:52:14.164Z,4.45
2019-03-19T11:54:42.239Z,6.62
2019-03-19T11:57:10.333Z,5.08
2019-03-19T11:59:38.400Z,5.60
2019-03-19T12:02:06.476Z,3.40
2019-03-19T12:04:34.670Z,6.08
2019-03-19T12:07:02.682Z,4.58
2019-03-19T12:09:30.708Z,5.85
2019-03-19T12:11:58.732Z,5.53
2019-03-19T12:14:26.757Z,4.37
2019-03-19T12:16:54.882Z,5.90
2019-03-19T12:19:22.945Z,5.35
2019-03-19T12:21:50.962Z,5.03
2019-03-19T12:24:19.072Z,4.53
2019-03-19T12:26:47.096Z,4.53
2019-03-19T12:29:15.247Z,4.67
2019-03-19T12:31:43.648Z,5.65
2019-03-19T12:34:11.660Z,4.20
2019-03-19T12:36:39.702Z,4.05
2019-03-19T12:39:09.704Z,4.22
2019-03-19T12:41:38.250Z,4.65
2019-03-19T12:44:06.283Z,5.60
2019-03-19T12:46:34.435Z,4.30
2019-03-19T12:49:02.483Z,4.85
2019-03-19T12:51:30.807Z,3.33
2019-03-19T12:53:58.877Z,3.83
2019-03-19T12:56:29.515Z,4.08
2019-03-19T12:58:57.773Z,5.12
2019-03-19T13:01:28.497Z,3.90
2019-03-19T13:03:55.567Z,3.90
2019-03-19T13:06:23.656Z,4.62
2019-03-19T13:08:51.695Z,5.67
2019-03-19T13:11:19.700Z,4.37
2019-03-19T13:13:47.773Z,3.40
2019-03-19T13:16:15.799Z,3.92
2019-03-19T13:18:43.912Z,4.35
2019-03-19T13:21:11.946Z,4.45
2019-03-19T13:23:40.000Z,3.25
2019-03-19T13:26:08.002Z,4.20
2019-03-19T13:28:36.046Z,3.60
2019-03-19T13:31:04.104Z,4.00
2019-03-19T13:33:32.170Z,4.35
2019-03-19T13:36:00.221Z,3.55
2019-03-19T13:38:28.280Z,3.85
2019-03-19T13:40:56.373Z,4.50
2019-03-19T13:43:24.581Z,4.83
2019-03-19T13:45:52.710Z,4.17
2019-03-19T13:48:20.707Z,2.90
2019-03-19T13:50:48.742Z,3.22
2019-03-19T13:53:16.776Z,3.55
2019-03-19T13:55:44.976Z,4.58
2019-03-19T13:58:12.980Z,4.25
2019-03-19T14:00:41.022Z,4.17
2019-03-19T14:03:09.039Z,4.42
2019-03-19T14:05:37.078Z,4.10
2019-03-19T14:08:05.896Z,3.10
2019-03-19T14:10:34.094Z,2.95
2019-03-19T14:13:02.143Z,2.12
2019-03-19T14:15:30.161Z,2.72
2019-03-19T14:17:58.229Z,2.65
2019-03-19T14:20:26.841Z,2.70
2019-03-19T14:22:54.870Z,3.90
2019-03-19T14:25:22.990Z,3.35
2019-03-19T14:27:51.003Z,3.10
2019-03-19T14:30:22.529Z,3.72
2019-03-19T14:32:50.547Z,2.65
2019-03-19T14:37:48.595Z,2.90
2019-03-19T14:40:18.258Z,4.12
2019-03-19T14:42:46.359Z,2.80
2019-03-19T14:45:15.037Z,3.02
2019-03-19T14:47:43.760Z,3.35
2019-03-19T14:50:13.404Z,2.50
2019-03-19T14:52:43.814Z,2.30
2019-03-19T14:55:11.651Z,2.77
2019-03-19T14:57:39.695Z,2.83
2019-03-19T15:00:09.580Z,3.33
2019-03-19T15:02:37.715Z,4.05
2019-03-19T15:05:06.407Z,3.65
2019-03-19T15:07:34.575Z,3.33
2019-03-19T15:10:02.718Z,3.08
2019-03-19T15:12:30.750Z,3.37
2019-03-19T15:14:58.854Z,2.45
2019-03-19T15:17:26.940Z,2.55
2019-03-19T15:19:54.950Z,3.17
2019-03-19T15:22:32.150Z,2.85
2019-03-19T15:24:52.861Z,3.10
2019-03-19T15:27:20.956Z,2.58
2019-03-19T15:29:48.988Z,2.20
2019-03-19T15:32:17.104Z,2.77
2019-03-19T15:34:45.171Z,2.80
2019-03-19T15:37:13.196Z,2.72
2019-03-19T15:39:41.227Z,2.77
2019-03-19T15:42:09.288Z,3.20
2019-03-19T15:44:37.498Z,3.45
2019-03-19T15:47:05.562Z,3.02
2019-03-19T15:49:38.106Z,3.62
2019-03-19T15:52:03.392Z,3.00
2019-03-19T15:54:31.481Z,4.40
2019-03-19T15:56:59.487Z,2.67
2019-03-19T15:59:27.515Z,3.20
2019-03-19T16:01:55.540Z,2.52
2019-03-19T16:04:23.721Z,2.75
2019-03-19T16:06:51.785Z,2.45
2019-03-19T16:09:19.805Z,2.52
2019-03-19T16:11:47.901Z,3.08
2019-03-19T16:14:15.937Z,2.15
2019-03-19T16:16:43.972Z,2.62
2019-03-19T16:19:11.983Z,2.37
2019-03-19T16:21:40.023Z,2.37
2019-03-19T16:24:08.106Z,2.22
2019-03-19T16:26:36.180Z,1.77
2019-03-19T16:29:04.202Z,3.37
2019-03-19T16:31:32.221Z,2.50
2019-03-19T16:34:00.252Z,2.75
2019-03-19T16:36:28.290Z,2.50
2019-03-19T16:38:56.332Z,2.02
2019-03-19T16:41:24.428Z,3.25
2019-03-19T16:43:52.440Z,1.82
2019-03-19T16:46:20.750Z,2.25
2019-03-19T16:48:48.809Z,2.52
2019-03-19T16:51:16.854Z,2.30
2019-03-19T16:53:44.940Z,1.90
2019-03-19T16:56:13.000Z,2.50
2019-03-19T16:58:41.029Z,2.47
2019-03-19T17:01:09.053Z,3.22
2019-03-19T17:03:37.091Z,2.50
2019-03-19T17:06:05.099Z,2.80
2019-03-19T17:08:33.154Z,6.03
2019-03-19T17:11:01.171Z,7.05
2019-03-19T17:13:29.215Z,4.30
2019-03-19T17:15:57.234Z,2.52
2019-03-19T17:18:25.269Z,2.67
2019-03-19T17:20:53.296Z,2.02
2019-03-19T17:23:21.319Z,3.65
2019-03-19T17:25:49.384Z,1.77
2019-03-19T17:28:22.394Z,4.22
2019-03-19T17:30:47.169Z,3.27
2019-03-19T17:33:15.219Z,2.95
2019-03-19T17:35:43.250Z,2.15
2019-03-19T17:38:11.285Z,2.00
2019-03-19T17:40:41.519Z,3.12
2019-03-19T17:43:09.241Z,2.17
2019-03-19T17:45:37.275Z,3.25
2019-03-19T17:48:15.463Z,3.05
2019-03-19T17:50:39.408Z,3.45
2019-03-19T17:53:07.473Z,3.75
2019-03-19T17:55:35.538Z,2.65
2019-03-19T17:58:03.556Z,2.77
2019-03-19T18:00:33.416Z,2.80
2019-03-19T18:03:01.443Z,2.30
2019-03-19T18:05:29.536Z,3.27
2019-03-19T18:07:57.591Z,5.30
2019-03-19T18:10:25.635Z,8.40
2019-03-19T18:12:53.653Z,9.60
2019-03-19T18:15:21.714Z,5.42
2019-03-19T18:17:49.744Z,5.35
2019-03-19T18:20:18.061Z,5.30
2019-03-19T18:22:46.072Z,4.42
2019-03-19T18:25:14.684Z,6.05
2019-03-19T18:27:42.727Z,4.67
2019-03-19T18:30:12.144Z,5.30
2019-03-19T18:32:40.172Z,3.30
2019-03-19T18:35:08.220Z,4.37
2019-03-19T18:37:36.325Z,6.92
2019-03-19T18:40:05.373Z,4.10
2019-03-19T18:42:33.396Z,4.80
2019-03-19T18:45:01.475Z,3.12
2019-03-19T18:47:29.517Z,2.60
2019-03-19T18:49:57.515Z,4.85
2019-03-19T18:52:25.572Z,3.27
2019-03-19T18:54:53.587Z,2.92
2019-03-19T18:57:21.696Z,5.30
2019-03-19T18:59:49.736Z,4.28
2019-03-19T19:02:17.833Z,3.58
2019-03-19T19:04:45.888Z,3.85
2019-03-19T19:07:13.987Z,3.27
2019-03-19T19:09:42.017Z,4.40
2019-03-19T19:12:10.125Z,3.02
2019-03-19T19:14:38.258Z,2.72
2019-03-19T19:17:06.322Z,2.95
2019-03-19T19:19:34.393Z,4.78
2019-03-19T19:22:02.432Z,4.05
2019-03-19T19:24:30.692Z,3.08
2019-03-19T19:26:58.747Z,3.22
2019-03-19T19:29:26.798Z,4.58
2019-03-19T19:31:54.814Z,3.60
2019-03-19T19:34:22.948Z,2.55
2019-03-19T19:36:50.983Z,4.08
2019-03-19T19:39:19.116Z,3.35
2019-03-19T19:41:47.228Z,3.08
2019-03-19T19:44:15.540Z,2.60
2019-03-19T19:46:43.539Z,3.20
2019-03-19T19:49:11.747Z,2.42
2019-03-19T19:51:39.807Z,2.75
2019-03-19T19:54:07.950Z,2.65
2019-03-19T19:56:36.056Z,2.25
2019-03-19T19:59:04.156Z,2.87
2019-03-19T20:01:32.184Z,3.75
2019-03-19T20:04:00.318Z,2.80
2019-03-19T20:06:28.371Z,2.30
2019-03-19T20:08:56.468Z,2.77
2019-03-19T20:11:24.509Z,3.72
2019-03-19T20:13:52.553Z,2.12
2019-03-19T20:16:20.587Z,3.10
2019-03-19T20:18:48.627Z,3.00
2019-03-19T20:21:16.671Z,2.50
2019-03-19T20:23:44.744Z,3.37
2019-03-19T20:26:12.790Z,2.67
2019-03-19T20:28:40.885Z,2.70
2019-03-19T20:31:09.002Z,2.52
2019-03-19T20:33:37.135Z,1.60
2019-03-19T20:36:05.182Z,3.12
2019-03-19T20:38:33.265Z,2.42
2019-03-19T20:41:01.315Z,2.15
2019-03-19T20:43:29.361Z,3.85
2019-03-19T20:45:57.426Z,3.35
2019-03-19T20:48:25.444Z,1.90
2019-03-19T20:50:53.836Z,2.45
2019-03-19T20:53:21.911Z,2.27
2019-03-19T20:55:49.954Z,2.75
2019-03-19T20:58:18.020Z,2.02
2019-03-19T21:00:46.108Z,2.90
2019-03-19T21:03:14.376Z,2.62
2019-03-19T21:05:42.433Z,2.05
2019-03-19T21:08:10.499Z,1.60
2019-03-19T21:10:38.608Z,1.72
2019-03-19T21:13:06.670Z,1.87
2019-03-19T21:15:34.767Z,2.52
2019-03-19T21:18:02.823Z,1.75
2019-03-19T21:20:30.838Z,2.30
2019-03-19T21:22:58.950Z,2.27
2019-03-19T21:25:26.971Z,1.98
2019-03-19T21:27:55.031Z,2.35
2019-03-19T21:30:23.564Z,2.62
2019-03-19T21:32:51.615Z,3.17
2019-03-19T21:35:20.199Z,2.60
2019-03-19T21:37:48.302Z,1.80
2019-03-19T21:40:16.322Z,2.00
2019-03-19T21:42:44.363Z,2.00
2019-03-19T21:45:13.172Z,1.45
2019-03-19T21:47:41.192Z,3.15
2019-03-19T21:50:13.322Z,2.65
2019-03-19T21:52:41.368Z,3.33
2019-03-19T21:55:09.947Z,2.45
2019-03-19T21:57:37.975Z,2.42
2019-03-19T22:00:08.890Z,2.25
2019-03-19T22:02:36.874Z,3.77
2019-03-19T22:05:05.472Z,3.02
2019-03-19T22:07:33.511Z,2.62
2019-03-19T22:10:01.536Z,2.00
2019-03-19T22:12:29.546Z,2.87
2019-03-19T22:14:57.602Z,3.90
2019-03-19T22:17:25.614Z,2.00
2019-03-19T22:19:53.839Z,2.67
2019-03-19T22:22:21.863Z,2.27
2019-03-19T22:24:49.911Z,2.27
2019-03-19T22:27:17.938Z,1.90
2019-03-19T22:29:46.044Z,3.90
2019-03-19T22:32:14.067Z,4.83
2019-03-19T22:34:42.104Z,3.83
2019-03-19T22:37:10.133Z,2.52
2019-03-19T22:39:38.183Z,2.65
2019-03-19T22:42:06.199Z,2.20
2019-03-19T22:44:34.208Z,2.35
2019-03-19T22:47:02.262Z,2.62
2019-03-19T22:49:30.494Z,1.82
2019-03-19T22:51:58.516Z,2.27
2019-03-19T22:54:26.659Z,2.62
2019-03-19T22:56:54.697Z,2.52
2019-03-19T22:59:22.743Z,1.70
2019-03-19T23:01:50.959Z,2.08
2019-03-19T23:04:26.963Z,2.33
2019-03-19T23:06:48.741Z,2.85
2019-03-19T23:09:16.815Z,2.52
2019-03-19T23:11:46.246Z,2.60
2019-03-19T23:14:14.259Z,2.65
2019-03-19T23:16:42.340Z,2.05
2019-03-19T23:19:10.378Z,2.30
2019-03-19T23:21:38.394Z,2.60
2019-03-19T23:24:06.398Z,3.05
2019-03-19T23:26:34.632Z,2.90
2019-03-19T23:29:02.659Z,2.02
2019-03-19T23:31:30.802Z,1.70
2019-03-19T23:33:58.833Z,2.15
2019-03-19T23:36:26.928Z,2.55
2019-03-19T23:38:54.997Z,2.17
2019-03-19T23:41:23.016Z,2.80
2019-03-19T23:43:51.056Z,2.50
2019-03-19T23:46:19.100Z,2.15
2019-03-19T23:48:47.183Z,1.90
2019-03-19T23:51:15.196Z,2.22
2019-03-19T23:53:43.295Z,2.12
2019-03-19T23:56:11.354Z,2.85
2019-03-19T23:58:39.384Z,1.62
